createdAt,value
2022-11-05T00:00:33.756Z,100572.97
2022-11-05T00:03:19.606Z,100582.44
2022-11-05T00:06:08.135Z,100581.59
2022-11-05T00:08:55.928Z,100587.50
2022-11-05T00:11:44.531Z,100597.88
2022-11-05T00:14:30.506Z,100604.63
2022-11-05T00:16:59.944Z,100600.16
2022-11-05T00:19:28.578Z,100602.09
2022-11-05T00:22:14.494Z,100601.06
2022-11-05T00:25:13.254Z,100603.38
2022-11-05T00:27:41.910Z,100610.38
2022-11-05T00:30:12.055Z,100606.81
2022-11-05T00:32:40.630Z,100615.75
2022-11-05T00:35:09.546Z,100617.38
2022-11-05T00:37:38.105Z,100608.56
2022-11-05T00:40:09.806Z,100618.94
2022-11-05T00:42:57.708Z,100615.44
2022-11-05T00:45:26.277Z,100620.75
2022-11-05T00:48:12.305Z,100611.16
2022-11-05T00:50:41.133Z,100624.06
2022-11-05T00:53:10.267Z,100632.69
2022-11-05T00:55:42.462Z,100631.81
2022-11-05T00:58:12.804Z,100641.28
2022-11-05T01:00:43.070Z,100643.94
2022-11-05T01:03:14.920Z,100645.69
2022-11-05T01:05:46.118Z,100638.69
2022-11-05T01:08:16.643Z,100643.09
2022-11-05T01:10:49.216Z,100647.50
2022-11-05T01:13:20.259Z,100648.28
2022-11-05T01:15:50.896Z,100651.66
2022-11-05T01:18:20.013Z,100651.66
2022-11-05T01:20:49.003Z,100660.41
2022-11-05T01:23:18.108Z,100649.13
2022-11-05T01:25:48.250Z,100654.56
2022-11-05T01:28:16.876Z,100658.91
2022-11-05T01:30:45.406Z,100658.09
2022-11-05T01:33:14.200Z,100660.69
2022-11-05T01:35:42.966Z,100660.69
2022-11-05T01:38:11.452Z,100660.88
2022-11-05T01:40:44.089Z,100662.50
2022-11-05T01:43:17.047Z,100664.22
2022-11-05T01:45:48.752Z,100667.53
2022-11-05T01:48:19.773Z,100666.69
2022-11-05T01:50:54.782Z,100669.09
2022-11-05T01:53:28.692Z,100678.50
2022-11-05T01:56:02.094Z,100670.53
2022-11-05T01:58:36.063Z,100675.69
2022-11-05T02:01:04.623Z,100678.28
2022-11-05T02:03:33.594Z,100675.00
2022-11-05T02:06:03.919Z,100680.88
2022-11-05T02:08:47.271Z,100688.59
2022-11-05T02:11:18.476Z,100684.19
2022-11-05T02:13:49.013Z,100691.88
2022-11-05T02:16:28.517Z,100702.41
2022-11-05T02:19:03.258Z,100702.50
2022-11-05T02:22:14.227Z,100708.53
2022-11-05T02:25:25.926Z,100704.13
2022-11-05T02:28:16.175Z,100717.38
2022-11-05T02:30:50.776Z,100719.13
2022-11-05T02:33:37.211Z,100717.19
2022-11-05T02:36:18.929Z,100724.31
2022-11-05T02:38:55.959Z,100719.84
2022-11-05T02:41:31.462Z,100722.31
2022-11-05T02:44:12.720Z,100724.63
2022-11-05T02:46:51.353Z,100737.56
2022-11-05T02:49:28.516Z,100729.72
2022-11-05T02:52:00.040Z,100744.38
2022-11-05T02:54:33.470Z,100734.59
2022-11-05T02:57:03.674Z,100744.06
2022-11-05T02:59:32.187Z,100736.06
2022-11-05T03:02:04.591Z,100747.38
2022-11-05T03:04:33.866Z,100755.34
2022-11-05T03:07:24.061Z,100753.53
2022-11-05T03:10:19.673Z,100758.53
2022-11-05T03:12:59.894Z,100762.94
2022-11-05T03:15:39.670Z,100767.91
2022-11-05T03:18:14.662Z,100761.63
2022-11-05T03:20:49.956Z,100765.03
2022-11-05T03:23:27.728Z,100769.13
2022-11-05T03:26:03.049Z,100770.78
2022-11-05T03:28:36.424Z,100781.03
2022-11-05T03:31:08.269Z,100779.34
2022-11-05T03:33:40.327Z,100789.53
2022-11-05T03:36:16.220Z,100786.28
2022-11-05T03:38:48.771Z,100789.53
2022-11-05T03:41:18.510Z,100788.66
2022-11-05T03:43:53.230Z,100787.75
2022-11-05T03:46:29.231Z,100798.13
2022-11-05T03:49:03.622Z,100800.72
2022-11-05T03:51:42.847Z,100800.72
2022-11-05T03:54:12.118Z,100807.66
2022-11-05T03:56:51.042Z,100814.03
2022-11-05T03:59:21.224Z,100811.38
2022-11-05T04:01:50.832Z,100815.44
2022-11-05T04:04:20.839Z,100817.34
2022-11-05T04:07:06.487Z,100825.78
2022-11-05T04:09:52.219Z,100824.81
2022-11-05T04:12:38.066Z,100826.56
2022-11-05T04:15:07.460Z,100835.09
2022-11-05T04:17:34.921Z,100832.44
2022-11-05T04:20:22.466Z,100835.09
2022-11-05T04:23:17.495Z,100838.47
2022-11-05T04:25:45.841Z,100839.28
2022-11-05T04:28:14.341Z,100845.50
2022-11-05T04:30:44.348Z,100846.75
2022-11-05T04:33:14.859Z,100856.16
2022-11-05T04:35:47.238Z,100856.84
2022-11-05T04:38:17.533Z,100854.94
2022-11-05T04:40:47.139Z,100859.91
2022-11-05T04:43:18.325Z,100864.41
2022-11-05T04:45:47.599Z,100858.38
2022-11-05T04:48:16.211Z,100860.81
2022-11-05T04:50:46.076Z,100867.06
2022-11-05T04:53:14.665Z,100860.25
2022-11-05T04:55:43.344Z,100863.63
2022-11-05T04:58:11.832Z,100865.31
2022-11-05T05:00:40.359Z,100864.53
2022-11-05T05:03:09.305Z,100867.28
2022-11-05T05:05:38.095Z,100869.44
2022-11-05T05:08:08.738Z,100865.78
2022-11-05T05:10:37.253Z,100866.44
2022-11-05T05:13:05.742Z,100864.66
2022-11-05T05:15:34.230Z,100864.09
2022-11-05T05:18:02.804Z,100861.66
2022-11-05T05:20:45.181Z,100864.72
2022-11-05T05:23:15.190Z,100872.44
2022-11-05T05:25:43.677Z,100872.25
2022-11-05T05:28:12.188Z,100875.78
2022-11-05T05:30:40.837Z,100886.88
2022-11-05T05:33:09.609Z,100887.69
2022-11-05T05:35:38.294Z,100886.22
2022-11-05T05:38:06.847Z,100889.41
2022-11-05T05:40:36.957Z,100896.47
2022-11-05T05:43:05.560Z,100903.97
2022-11-05T05:45:36.090Z,100910.75
2022-11-05T05:48:04.780Z,100914.41
2022-11-05T05:50:33.288Z,100915.09
2022-11-05T05:53:01.825Z,100921.38
2022-11-05T05:55:30.394Z,100924.44
2022-11-05T05:58:00.400Z,100931.84
2022-11-05T06:00:28.929Z,100929.09
2022-11-05T06:02:57.888Z,100935.03
2022-11-05T06:05:26.626Z,100935.00
2022-11-05T06:07:58.779Z,100943.78
2022-11-05T06:10:27.330Z,100942.78
2022-11-05T06:12:55.948Z,100942.97
2022-11-05T06:15:25.831Z,100944.66
2022-11-05T06:17:54.472Z,100951.34
2022-11-05T06:20:22.991Z,100954.91
2022-11-05T06:23:00.778Z,100959.31
2022-11-05T06:25:29.327Z,100970.44
2022-11-05T06:27:57.837Z,100970.53
2022-11-05T06:30:27.859Z,100980.22
2022-11-05T06:32:56.423Z,100980.91
2022-11-05T06:35:24.913Z,100983.63
2022-11-05T06:37:53.508Z,100993.50
2022-11-05T06:40:21.988Z,101001.06
2022-11-05T06:42:53.319Z,101001.13
2022-11-05T06:45:22.081Z,101003.47
2022-11-05T06:47:58.008Z,101012.06
2022-11-05T06:50:28.390Z,101008.38
2022-11-05T06:52:58.175Z,101012.72
2022-11-05T06:55:28.937Z,101015.19
2022-11-05T06:57:58.294Z,101020.44
2022-11-05T07:00:26.844Z,101025.59
2022-11-05T07:02:57.779Z,101022.19
2022-11-05T07:05:27.151Z,101026.34
2022-11-05T07:07:55.650Z,101029.78
2022-11-05T07:10:24.270Z,101029.78
2022-11-05T07:12:52.765Z,101034.81
2022-11-05T07:15:21.384Z,101036.59
2022-11-05T07:17:49.967Z,101041.03
2022-11-05T07:20:20.003Z,101046.13
2022-11-05T07:22:48.559Z,101053.00
2022-11-05T07:25:17.214Z,101059.94
2022-11-05T07:27:45.755Z,101062.59
2022-11-05T07:30:14.567Z,101065.19
2022-11-05T07:32:43.421Z,101074.59
2022-11-05T07:35:12.087Z,101071.03
2022-11-05T07:37:45.725Z,101072.13
2022-11-05T07:40:15.578Z,101073.22
2022-11-05T07:42:44.505Z,101075.81
2022-11-05T07:45:13.796Z,101069.69
2022-11-05T07:47:47.969Z,101066.03
2022-11-05T07:50:17.570Z,101065.75
2022-11-05T07:52:48.298Z,101068.25
2022-11-05T07:55:17.437Z,101067.38
2022-11-05T07:57:47.532Z,101061.16
2022-11-05T08:00:18.078Z,101070.03
2022-11-05T08:03:02.166Z,101073.50
2022-11-05T08:05:37.781Z,101078.13
2022-11-05T08:08:09.058Z,101093.19
2022-11-05T08:10:38.393Z,101086.06
2022-11-05T08:13:08.074Z,101100.50
2022-11-05T08:15:37.117Z,101101.84
2022-11-05T08:18:07.356Z,101102.72
2022-11-05T08:20:36.995Z,101111.19
2022-11-05T08:23:06.949Z,101109.34
2022-11-05T08:25:35.705Z,101103.91
2022-11-05T08:28:07.501Z,101114.38
2022-11-05T08:30:36.342Z,101116.16
2022-11-05T08:33:07.203Z,101127.41
2022-11-05T08:35:36.938Z,101131.56
2022-11-05T08:38:09.140Z,101133.34
2022-11-05T08:40:38.307Z,101131.41
2022-11-05T08:43:08.265Z,101132.50
2022-11-05T08:45:38.502Z,101134.91
2022-11-05T08:48:09.218Z,101127.22
2022-11-05T08:50:38.803Z,101135.91
2022-11-05T08:53:11.016Z,101135.38
2022-11-05T08:55:40.076Z,101135.78
2022-11-05T08:58:12.389Z,101134.88
2022-11-05T09:00:41.313Z,101143.16
2022-11-05T09:03:11.432Z,101136.59
2022-11-05T09:05:41.854Z,101139.81
2022-11-05T09:08:13.583Z,101143.34
2022-11-05T09:10:42.957Z,101147.88
2022-11-05T09:13:17.753Z,101149.94
2022-11-05T09:15:47.498Z,101154.47
2022-11-05T09:18:16.785Z,101159.56
2022-11-05T09:20:45.878Z,101158.19
2022-11-05T09:23:16.324Z,101163.63
2022-11-05T09:25:45.618Z,101168.22
2022-11-05T09:28:17.543Z,101162.59
2022-11-05T09:30:48.119Z,101167.03
2022-11-05T09:33:17.552Z,101171.72
2022-11-05T09:35:47.204Z,101177.00
2022-11-05T09:38:17.155Z,101185.69
2022-11-05T09:40:52.839Z,101181.56
2022-11-05T09:43:30.361Z,101180.38
2022-11-05T09:46:04.470Z,101189.38
2022-11-05T09:48:35.057Z,101184.16
2022-11-05T09:51:05.912Z,101182.50
2022-11-05T09:53:40.958Z,101186.53
2022-11-05T09:56:21.500Z,101188.81
2022-11-05T09:58:53.861Z,101192.88
2022-11-05T10:01:26.562Z,101188.44
2022-11-05T10:03:58.099Z,101193.81
2022-11-05T10:06:28.764Z,101189.66
2022-11-05T10:09:06.824Z,101192.72
2022-11-05T10:11:49.275Z,101199.22
2022-11-05T10:14:21.311Z,101199.78
2022-11-05T10:16:55.087Z,101200.16
2022-11-05T10:19:26.230Z,101198.06
2022-11-05T10:22:06.884Z,101205.81
2022-11-05T10:24:37.763Z,101197.59
2022-11-05T10:27:06.897Z,101206.44
2022-11-05T10:29:36.936Z,101201.78
2022-11-05T10:32:07.415Z,101207.91
2022-11-05T10:34:39.659Z,101211.97
2022-11-05T10:37:08.491Z,101211.22
2022-11-05T10:39:38.797Z,101206.34
2022-11-05T10:42:27.228Z,101213.09
2022-11-05T10:45:05.470Z,101213.91
2022-11-05T10:47:46.222Z,101216.63
2022-11-05T10:50:18.615Z,101223.69
2022-11-05T10:52:57.475Z,101222.16
2022-11-05T10:55:30.182Z,101225.31
2022-11-05T10:58:12.511Z,101222.53
2022-11-05T11:00:41.358Z,101227.72
2022-11-05T11:03:34.054Z,101225.31
2022-11-05T11:06:03.991Z,101228.41
2022-11-05T11:08:36.547Z,101229.72
2022-11-05T11:11:09.141Z,101232.75
2022-11-05T11:13:52.010Z,101225.16
2022-11-05T11:16:23.320Z,101229.91
2022-11-05T11:18:55.026Z,101232.22
2022-11-05T11:21:24.784Z,101228.91
2022-11-05T11:23:57.956Z,101226.63
2022-11-05T11:26:32.254Z,101217.19
2022-11-05T11:29:01.688Z,101216.47
2022-11-05T11:31:32.950Z,101216.72
2022-11-05T11:34:05.842Z,101219.94
2022-11-05T11:36:36.979Z,101221.81
2022-11-05T11:39:07.810Z,101227.84
2022-11-05T11:41:41.977Z,101221.69
2022-11-05T11:44:15.946Z,101225.31
2022-11-05T11:46:49.538Z,101221.81
2022-11-05T11:49:32.530Z,101221.88
2022-11-05T11:52:04.818Z,101221.31
2022-11-05T11:54:35.198Z,101227.63
2022-11-05T11:57:21.818Z,101238.59
2022-11-05T12:03:06.334Z,101241.03
2022-11-05T12:05:42.001Z,101244.06
2022-11-05T12:08:23.815Z,101239.19
2022-11-05T12:10:59.376Z,101243.53
2022-11-05T12:13:59.615Z,101234.03
2022-11-05T12:16:40.967Z,101234.63
2022-11-05T12:19:23.940Z,101228.38
2022-11-05T12:22:01.220Z,101236.94
2022-11-05T12:24:58.098Z,101231.38
2022-11-05T12:27:56.978Z,101240.22
2022-11-05T12:30:29.015Z,101241.25
2022-11-05T12:33:15.765Z,101234.84
2022-11-05T12:35:57.935Z,101243.97
2022-11-05T12:38:48.044Z,101238.78
2022-11-05T12:41:24.632Z,101241.28
2022-11-05T12:44:03.799Z,101235.78
2022-11-05T12:46:39.622Z,101239.34
2022-11-05T12:49:39.212Z,101237.09
2022-11-05T12:52:37.779Z,101233.09
2022-11-05T12:55:12.268Z,101225.03
2022-11-05T12:57:44.261Z,101230.75
2022-11-05T13:00:19.773Z,101228.00
2022-11-05T13:02:53.789Z,101231.50
2022-11-05T13:05:29.392Z,101238.09
2022-11-05T13:08:07.543Z,101236.97
2022-11-05T13:10:40.945Z,101235.00
2022-11-05T13:13:16.657Z,101230.41
2022-11-05T13:15:52.061Z,101234.66
2022-11-05T13:18:27.641Z,101236.97
2022-11-05T13:20:59.751Z,101236.09
2022-11-05T13:23:35.851Z,101236.94
2022-11-05T13:26:08.819Z,101239.41
2022-11-05T13:28:45.419Z,101241.25
2022-11-05T13:31:19.672Z,101252.00
2022-11-05T13:33:50.610Z,101249.28
2022-11-05T13:36:41.509Z,101249.41
2022-11-05T13:39:17.849Z,101261.19
2022-11-05T13:41:58.504Z,101257.78
2022-11-05T13:44:56.086Z,101270.47
2022-11-05T13:47:39.935Z,101272.22
2022-11-05T13:50:30.355Z,101273.34
2022-11-05T13:53:31.063Z,101279.56
2022-11-05T13:56:10.734Z,101272.53
2022-11-05T13:58:55.071Z,101272.44
2022-11-05T14:01:40.367Z,101277.41
2022-11-05T14:04:16.635Z,101277.09
2022-11-05T14:06:46.816Z,101275.31
2022-11-05T14:09:23.074Z,101272.53
2022-11-05T14:11:54.891Z,101279.16
2022-11-05T14:14:25.956Z,101293.06
2022-11-05T14:16:56.396Z,101285.06
2022-11-05T14:19:35.699Z,101286.56
2022-11-05T14:22:36.876Z,101292.41
2022-11-05T14:25:38.391Z,101287.75
2022-11-05T14:28:41.187Z,101297.13
2022-11-05T14:34:47.526Z,101291.91
2022-11-05T14:37:31.307Z,101282.44
2022-11-05T14:40:19.342Z,101287.53
2022-11-05T14:42:52.900Z,101295.94
2022-11-05T14:45:30.525Z,101292.28
2022-11-05T14:48:00.911Z,101301.88
2022-11-05T14:50:36.910Z,101305.16
2022-11-05T14:53:13.798Z,101305.03
2022-11-05T14:55:44.634Z,101315.34
2022-11-05T14:58:29.168Z,101323.66
2022-11-05T15:01:00.466Z,101319.53
2022-11-05T15:03:47.092Z,101320.75
2022-11-05T15:06:29.332Z,101312.53
2022-11-05T15:09:19.360Z,101310.78
2022-11-05T15:12:02.500Z,101314.09
2022-11-05T15:14:35.988Z,101317.44
2022-11-05T15:17:18.615Z,101313.53
2022-11-05T15:19:48.240Z,101327.47
2022-11-05T15:22:31.565Z,101328.34
2022-11-05T15:25:00.511Z,101325.38
2022-11-05T15:27:46.667Z,101323.41
2022-11-05T15:30:17.337Z,101325.06
2022-11-05T15:32:47.682Z,101327.47
2022-11-05T15:35:27.031Z,101328.16
2022-11-05T15:38:02.190Z,101332.34
2022-11-05T15:40:32.683Z,101335.72
2022-11-05T15:43:20.750Z,101334.72
2022-11-05T15:46:06.706Z,101335.41
2022-11-05T15:48:37.382Z,101333.66
2022-11-05T15:51:06.647Z,101337.00
2022-11-05T15:54:24.417Z,101335.00
2022-11-05T15:56:50.146Z,101335.81
2022-11-05T15:59:20.958Z,101342.44
2022-11-05T16:01:52.252Z,101339.75
2022-11-05T16:04:24.281Z,101338.91
2022-11-05T16:06:55.937Z,101338.69
2022-11-05T16:09:27.990Z,101341.19
2022-11-05T16:12:24.186Z,101339.63
2022-11-05T16:15:05.372Z,101345.72
2022-11-05T16:17:46.735Z,101340.25
2022-11-05T16:20:26.381Z,101342.72
2022-11-05T16:22:57.516Z,101342.50
2022-11-05T16:25:31.494Z,101340.59
2022-11-05T16:28:01.915Z,101348.31
2022-11-05T16:30:30.850Z,101338.44
2022-11-05T16:33:07.565Z,101343.16
2022-11-05T16:35:41.620Z,101347.03
2022-11-05T16:38:13.922Z,101350.31
2022-11-05T16:40:42.746Z,101349.13
2022-11-05T16:43:19.625Z,101349.56
2022-11-05T16:45:48.631Z,101359.63
2022-11-05T16:48:17.749Z,101362.00
2022-11-05T16:50:48.142Z,101370.63
2022-11-05T16:53:17.123Z,101367.09
2022-11-05T16:55:46.939Z,101375.88
2022-11-05T16:58:20.734Z,101376.72
2022-11-05T17:00:50.503Z,101383.69
2022-11-05T17:03:19.219Z,101377.56
2022-11-05T17:05:49.165Z,101386.13
2022-11-05T17:08:17.659Z,101388.75
2022-11-05T17:10:46.266Z,101393.13
2022-11-05T17:13:16.513Z,101399.44
2022-11-05T17:15:46.618Z,101409.75
2022-11-05T17:18:18.826Z,101414.84
2022-11-05T17:20:50.465Z,101406.06
2022-11-05T17:23:20.696Z,101416.38
2022-11-05T17:25:51.342Z,101416.50
2022-11-05T17:28:21.066Z,101413.84
2022-11-05T17:30:52.935Z,101423.47
2022-11-05T17:33:22.736Z,101421.69
2022-11-05T17:35:53.650Z,101425.94
2022-11-05T17:38:23.571Z,101429.50
2022-11-05T17:40:52.891Z,101427.69
2022-11-05T17:43:22.051Z,101426.63
2022-11-05T17:45:52.869Z,101423.06
2022-11-05T17:48:22.174Z,101428.97
2022-11-05T17:50:52.961Z,101432.44
2022-11-05T17:53:21.516Z,101433.06
2022-11-05T17:55:50.249Z,101430.53
2022-11-05T17:58:18.801Z,101438.47
2022-11-05T18:00:48.431Z,101438.19
2022-11-05T18:03:16.999Z,101442.50
2022-11-05T18:05:45.740Z,101448.53
2022-11-05T18:08:15.626Z,101447.81
2022-11-05T18:10:44.377Z,101446.63
2022-11-05T18:13:13.457Z,101453.31
2022-11-05T18:15:42.213Z,101449.88
2022-11-05T18:18:10.974Z,101442.25
2022-11-05T18:20:40.223Z,101442.25
2022-11-05T18:23:08.789Z,101448.03
2022-11-05T18:25:40.914Z,101436.56
2022-11-05T18:28:10.589Z,101438.72
2022-11-05T18:30:39.883Z,101435.03
2022-11-05T18:33:08.546Z,101438.44
2022-11-05T18:35:42.187Z,101440.38
2022-11-05T18:38:11.306Z,101433.75
2022-11-05T18:40:41.279Z,101436.75
2022-11-05T18:43:10.424Z,101433.56
2022-11-05T18:45:39.216Z,101435.00
2022-11-05T18:48:08.119Z,101438.19
2022-11-05T18:50:36.723Z,101435.47
2022-11-05T18:53:05.337Z,101443.31
2022-11-05T18:55:33.890Z,101440.78
2022-11-05T18:58:03.771Z,101441.59
2022-11-05T19:00:33.248Z,101437.16
2022-11-05T19:03:02.637Z,101438.72
2022-11-05T19:05:31.608Z,101447.00
2022-11-05T19:08:00.658Z,101446.66
2022-11-05T19:10:29.485Z,101449.19
2022-11-05T19:12:58.019Z,101437.84
2022-11-05T19:15:28.031Z,101446.31
2022-11-05T19:17:56.618Z,101439.31
2022-11-05T19:20:25.196Z,101440.06
2022-11-05T19:22:53.750Z,101454.75
2022-11-05T19:25:22.345Z,101454.56
2022-11-05T19:27:50.868Z,101450.06
2022-11-05T19:30:19.536Z,101453.47
2022-11-05T19:32:49.424Z,101445.59
2022-11-05T19:35:18.612Z,101451.59
2022-11-05T19:37:47.195Z,101457.53
2022-11-05T19:40:15.697Z,101462.56
2022-11-05T19:42:44.230Z,101458.94
2022-11-05T19:45:30.858Z,101458.06
2022-11-05T19:48:02.724Z,101459.59
2022-11-05T19:50:31.266Z,101464.53
2022-11-05T19:53:00.053Z,101472.16
2022-11-05T19:55:28.746Z,101463.28
2022-11-05T19:57:57.278Z,101469.91
2022-11-05T20:00:25.778Z,101466.22
2022-11-05T20:02:54.670Z,101457.16
2022-11-05T20:05:24.822Z,101457.66
2022-11-05T20:07:53.452Z,101449.75
2022-11-05T20:10:22.631Z,101458.16
2022-11-05T20:12:51.546Z,101452.81
2022-11-05T20:15:20.428Z,101462.13
2022-11-05T20:17:51.185Z,101460.28
2022-11-05T20:20:20.858Z,101459.31
2022-11-05T20:22:53.270Z,101460.03
2022-11-05T20:25:21.942Z,101469.41
2022-11-05T20:27:51.235Z,101471.13
2022-11-05T20:30:19.981Z,101469.31
2022-11-05T20:32:48.677Z,101479.75
2022-11-05T20:35:17.228Z,101481.28
2022-11-05T20:37:51.105Z,101483.75
2022-11-05T20:40:23.946Z,101486.31
2022-11-05T20:42:52.580Z,101484.38
2022-11-05T20:45:21.402Z,101477.25
2022-11-05T20:47:50.045Z,101484.84
2022-11-05T20:50:18.698Z,101498.34
2022-11-05T20:52:47.311Z,101490.50
2022-11-05T20:55:16.086Z,101487.09
2022-11-05T20:57:46.550Z,101489.97
2022-11-05T21:00:16.404Z,101479.34
2022-11-05T21:02:45.613Z,101479.44
2022-11-05T21:05:14.235Z,101476.75
2022-11-05T21:07:43.110Z,101481.78
2022-11-05T21:10:12.085Z,101479.03
2022-11-05T21:12:42.616Z,101493.41
2022-11-05T21:15:13.111Z,101489.75
2022-11-05T21:17:41.751Z,101492.09
2022-11-05T21:20:11.041Z,101486.03
2022-11-05T21:22:43.098Z,101499.69
2022-11-05T21:25:11.714Z,101512.59
2022-11-05T21:27:43.539Z,101505.75
2022-11-05T21:30:14.999Z,101507.34
2022-11-05T21:32:43.761Z,101498.78
2022-11-05T21:35:12.485Z,101503.09
2022-11-05T21:37:41.391Z,101508.06
2022-11-05T21:40:11.612Z,101501.75
2022-11-05T21:42:40.217Z,101494.66
2022-11-05T21:45:09.619Z,101491.78
2022-11-05T21:47:39.507Z,101483.09
2022-11-05T21:50:09.181Z,101486.19
2022-11-05T21:52:55.130Z,101492.19
2022-11-05T21:55:37.664Z,101486.91
2022-11-05T21:58:32.037Z,101489.50
2022-11-05T22:01:02.601Z,101482.44
2022-11-05T22:03:33.017Z,101484.28
2022-11-05T22:06:01.882Z,101485.84
2022-11-05T22:08:30.626Z,101491.00
2022-11-05T22:10:59.502Z,101497.78
2022-11-05T22:13:28.094Z,101483.16
2022-11-05T22:15:57.321Z,101481.56
2022-11-05T22:18:25.999Z,101492.63
2022-11-05T22:20:56.165Z,101491.91
2022-11-05T22:23:25.735Z,101493.50
2022-11-05T22:26:00.356Z,101485.69
2022-11-05T22:28:29.019Z,101490.13
2022-11-05T22:30:57.601Z,101482.66
2022-11-05T22:33:26.192Z,101482.44
2022-11-05T22:35:56.083Z,101480.88
2022-11-05T22:38:24.605Z,101479.97
2022-11-05T22:40:53.515Z,101481.75
2022-11-05T22:43:22.043Z,101480.88
2022-11-05T22:45:50.537Z,101480.22
2022-11-05T22:48:19.076Z,101483.63
2022-11-05T22:50:47.568Z,101473.28
2022-11-05T22:53:17.545Z,101481.22
2022-11-05T22:55:46.143Z,101483.91
2022-11-05T22:58:14.929Z,101483.00
2022-11-05T23:00:43.858Z,101487.25
2022-11-05T23:03:12.477Z,101482.09
2022-11-05T23:05:41.155Z,101485.56
2022-11-05T23:08:28.434Z,101485.56
2022-11-05T23:11:16.188Z,101488.16
2022-11-05T23:13:44.707Z,101489.69
2022-11-05T23:16:30.725Z,101484.44
2022-11-05T23:19:16.370Z,101487.81
2022-11-05T23:22:02.158Z,101482.66
2022-11-05T23:24:30.631Z,101487.09
2022-11-05T23:27:00.525Z,101494.63
2022-11-05T23:29:29.109Z,101482.56
2022-11-05T23:32:15.266Z,101485.69
2022-11-05T23:34:44.058Z,101489.84
2022-11-05T23:37:30.204Z,101486.41
2022-11-05T23:39:58.714Z,101486.22
2022-11-05T23:42:46.389Z,101479.19
2022-11-05T23:45:32.047Z,101478.38
2022-11-05T23:48:19.886Z,101468.03
2022-11-05T23:50:51.666Z,101464.47
2022-11-05T23:53:20.503Z,101469.47
2022-11-05T23:55:49.519Z,101478.22
2022-11-05T23:58:19.781Z,101474.63
